Darstellungsparameter: Aktuell verwendete Einstellungen:
Skalierung der Graphiken ... ?
xyx+y,   Skalierungsfaktor:      Skalierung: Modus: x, Faktor: 1
Darstellungszeitraum ... ?
Vom - - bis: - -   Zeitraum: 20.04.2020 - 24.04.2020
Min/Max/Avg-Anzeige ... ?
Zeige MMA aktuell
Zeige MMA Monat
Zeige MMA alles
Zeige --A aktuell
Zeige --A Monat
Zeige --A alles
Keine MMA-Anzeige
MMA:
Keine MMA-Graphiken
MMA-Basis: 20.04.2020 - 24.04.2020
Quicknavigation für Darstellung... ?
Tage:      1T, 2T, 3T, 5T -1T -2T -3T -5T +1T +2T +3T +5T
Wochen: 1W, 2W, 3W -1W -2W -3W +1W +2W +3W
Monate: 1M, 3M, 6M -1M -3M -6M +1M +3M +6M
Jahre:    1J, 3J, 5J, 10J -1J -3J -5J -10J +1J +3J +5J +10J
Nutze für die Darstellung ... ?
Originaldaten oder ...
Mittelwerte Minima Maxima auf...
Stundenbasis Tagesbasis Wochenbasis
Monatsbasis Jahresbasis      Datenbasis: Mittelwerte auf Stundenbasis
Darstellen als:
Statistik (Auto) Statistik J:M      Darstellung:
Zur Graphik,    zurück zur Übersicht aller Sensoren.
 
Tabellarische Datenbersicht: ?
 
Sensor: Nr:Datum:Temp:Feuchte:Taupunkt:
Aussen-T/F 1 20-04-2020 00:00:00 10.3 C 58.5000 % 2.53 C
2 20-04-2020 01:00:00 9.81667 C 57.9167 % 1.94 C
3 20-04-2020 02:00:00 8.10833 C 64.9167 % 1.92 C
4 20-04-2020 03:00:00 7.21667 C 68.0833 % 1.73 C
5 20-04-2020 04:00:00 6.60833 C 70.0000 % 1.54 C
6 20-04-2020 05:00:00 6.575 C 70.1667 % 1.54 C
7 20-04-2020 06:00:00 6.36667 C 71.0833 % 1.52 C
8 20-04-2020 07:00:00 6.90833 C 68.6667 % 1.56 C
9 20-04-2020 08:00:00 8.33333 C 63.3333 % 1.79 C
10 20-04-2020 09:00:00 9.20833 C 62.4167 % 2.41 C
11 20-04-2020 10:00:00 11.50833 C 54.4167 % 2.64 C
12 20-04-2020 11:00:00 14.16667 C 44.5833 % 2.29 C
13 20-04-2020 12:00:00 15.05833 C 40.0833 % 1.61 C
14 20-04-2020 13:00:00 16.025 C 37.9167 % 1.7 C
15 20-04-2020 14:00:00 17.26667 C 34.7500 % 1.58 C
16 20-04-2020 15:00:00 18.40833 C 32.0000 % 1.43 C
17 20-04-2020 16:00:00 19.5 C 30.5833 % 1.75 C
18 20-04-2020 17:00:00 19.83333 C 32.0833 % 2.71 C
19 20-04-2020 18:00:00 18.66667 C 36.5000 % 3.51 C
20 20-04-2020 19:00:00 17.61667 C 36.2500 % 2.48 C
21 20-04-2020 20:00:00 15.35 C 40.2500 % 1.93 C
22 20-04-2020 21:00:00 13.21667 C 44.4167 % 1.38 C
23 20-04-2020 22:00:00 12.40833 C 46.0833 % 1.15 C
24 20-04-2020 23:00:00 11.69167 C 46.1667 % 0.52 C
25 21-04-2020 00:00:00 10.975 C 48.3333 % 0.5 C
Sensor: Nr:Datum:Temp:Feuchte:Taupunkt:
Aussen-T/F 26 21-04-2020 01:00:00 9.35833 C 55.3333 % 0.87 C
27 21-04-2020 02:00:00 9.41667 C 54.8333 % 0.8 C
28 21-04-2020 03:00:00 9.54167 C 54.7500 % 0.9 C
29 21-04-2020 04:00:00 8.425 C 60.4167 % 1.22 C
30 21-04-2020 05:00:00 7.825 C 63.5833 % 1.36 C
31 21-04-2020 06:00:00 7.01667 C 67.7500 % 1.47 C
32 21-04-2020 07:00:00 6.96667 C 69.0833 % 1.7 C
33 21-04-2020 08:00:00 8.04167 C 66.0000 % 2.09 C
34 21-04-2020 09:00:00 10.08333 C 57.6667 % 2.13 C
35 21-04-2020 10:00:00 12.33333 C 49.0000 % 1.94 C
36 21-04-2020 11:00:00 14.51667 C 42.4167 % 1.91 C
37 21-04-2020 12:00:00 16.14167 C 37.8333 % 1.77 C
38 21-04-2020 13:00:00 17.4 C 35.1667 % 1.87 C
39 21-04-2020 14:00:00 18.95833 C 32.4167 % 2.09 C
40 21-04-2020 15:00:00 20.21667 C 30.6667 % 2.41 C
41 21-04-2020 16:00:00 20.80833 C 30.2500 % 2.73 C
42 21-04-2020 17:00:00 21.14167 C 30.6667 % 3.21 C
43 21-04-2020 18:00:00 20.84167 C 32.0833 % 3.59 C
44 21-04-2020 19:00:00 19.58333 C 34.9167 % 3.69 C
45 21-04-2020 20:00:00 17.18333 C 40.7500 % 3.75 C
46 21-04-2020 21:00:00 14.54167 C 47.9167 % 3.65 C
47 21-04-2020 22:00:00 13.075 C 53.0833 % 3.75 C
48 21-04-2020 23:00:00 11.90833 C 57.0000 % 3.67 C
49 22-04-2020 00:00:00 11.28333 C 58.3333 % 3.41 C
50 22-04-2020 01:00:00 10.53333 C 61.2500 % 3.4 C
Sensor: Nr:Datum:Temp:Feuchte:Taupunkt:
Aussen-T/F 51 22-04-2020 02:00:00 9.98333 C 63.0833 % 3.29 C
52 22-04-2020 03:00:00 9.25833 C 65.6667 % 3.17 C
53 22-04-2020 04:00:00 8.41667 C 68.0833 % 2.88 C
54 22-04-2020 05:00:00 7.49167 C 71.4167 % 2.67 C
55 22-04-2020 06:00:00 6.575 C 75.0000 % 2.47 C
56 22-04-2020 07:00:00 6.19167 C 79.3333 % 2.89 C
57 22-04-2020 08:00:00 7.35833 C 76.2500 % 3.46 C
58 22-04-2020 09:00:00 10.36667 C 62.5833 % 3.54 C
59 22-04-2020 10:00:00 13.09167 C 51.5833 % 3.36 C
60 22-04-2020 11:00:00 15.875 C 42.0000 % 3 C
61 22-04-2020 12:00:00 17.65 C 35.5833 % 2.25 C
62 22-04-2020 13:00:00 18.93333 C 34.1667 % 2.81 C
63 22-04-2020 14:00:00 20.18333 C 32.8333 % 3.34 C
64 22-04-2020 15:00:00 21.40833 C 30.6667 % 3.44 C
65 22-04-2020 16:00:00 22.575 C 28.7500 % 3.54 C
66 22-04-2020 17:00:00 22.65833 C 28.2500 % 3.36 C
67 22-04-2020 18:00:00 22.38333 C 28.1667 % 3.08 C
68 22-04-2020 19:00:00 21.275 C 30.0000 % 3.02 C
69 22-04-2020 20:00:00 18.38333 C 38.4167 % 3.98 C
70 22-04-2020 21:00:00 14.96667 C 47.0833 % 3.79 C
71 22-04-2020 22:00:00 13.81667 C 51.0000 % 3.87 C
72 22-04-2020 23:00:00 13.74167 C 51.4167 % 3.91 C
73 23-04-2020 00:00:00 12.85 C 54.5000 % 3.91 C
74 23-04-2020 01:00:00 12.08333 C 57.3333 % 3.92 C
75 23-04-2020 02:00:00 10.35833 C 64.0000 % 3.85 C
Sensor: Nr:Datum:Temp:Feuchte:Taupunkt:
Aussen-T/F 76 23-04-2020 03:00:00 9.51667 C 67.2500 % 3.76 C
77 23-04-2020 04:00:00 8.39167 C 71.3333 % 3.51 C
78 23-04-2020 05:00:00 6.975 C 77.1667 % 3.26 C
79 23-04-2020 06:00:00 6.3 C 79.7500 % 3.07 C
80 23-04-2020 07:00:00 5.95833 C 83.6667 % 3.41 C
81 23-04-2020 08:00:00 6.26667 C 86.7500 % 4.23 C
82 23-04-2020 09:00:00 8.35 C 83.0000 % 5.64 C
83 23-04-2020 10:00:00 11.61667 C 70.6667 % 6.48 C
84 23-04-2020 11:00:00 16.36667 C 49.8333 % 5.88 C
85 23-04-2020 12:00:00 18.08333 C 43.5000 % 5.49 C
86 23-04-2020 13:00:00 19.425 C 35.1667 % 3.65 C
87 23-04-2020 14:00:00 20.66667 C 33.0000 % 3.84 C
88 23-04-2020 15:00:00 22 C 30.7500 % 3.99 C
89 23-04-2020 16:00:00 23.20833 C 29.1667 % 4.29 C
90 23-04-2020 17:00:00 24.35833 C 27.5833 % 4.48 C
91 23-04-2020 18:00:00 25.35833 C 26.3333 % 4.66 C
92 23-04-2020 19:00:00 22.41667 C 44.3333 % 9.68 C
93 23-04-2020 20:00:00 14.64167 C 67.0000 % 8.59 C
94 23-04-2020 21:00:00 12.975 C 65.0833 % 6.58 C
95 23-04-2020 22:00:00 11.525 C 67.8333 % 5.8 C
96 23-04-2020 23:00:00 10.15833 C 71.2500 % 5.19 C
97 24-04-2020 00:00:00 9.33333 C 73.5833 % 4.86 C
98 24-04-2020 01:00:00 8.5 C 77.0000 % 4.71 C
99 24-04-2020 02:00:00 7.70833 C 79.6667 % 4.42 C
100 24-04-2020 03:00:00 6.975 C 82.9167 % 4.28 C
Sensor: Nr:Datum:Temp:Feuchte:Taupunkt:
Aussen-T/F 101 24-04-2020 04:00:00 6.50833 C 85.1667 % 4.2 C
102 24-04-2020 05:00:00 6.41667 C 86.1667 % 4.28 C
103 24-04-2020 06:00:00 6.36667 C 87.0000 % 4.37 C
104 24-04-2020 07:00:00 6.59167 C 87.8333 % 4.72 C
105 24-04-2020 08:00:00 7.83333 C 86.0833 % 5.66 C
106 24-04-2020 09:00:00 10.66667 C 77.5833 % 6.92 C
107 24-04-2020 10:00:00 12.975 C 71.4167 % 7.93 C
108 24-04-2020 11:00:00 15.21667 C 64.5833 % 8.59 C
109 24-04-2020 12:00:00 17.58333 C 57.1667 % 9.02 C
110 24-04-2020 13:00:00 20.025 C 41.5000 % 6.56 C
111 24-04-2020 14:00:00 21.325 C 41.0833 % 7.58 C
112 24-04-2020 15:00:00 22.06667 C 37.7500 % 7 C
113 24-04-2020 16:00:00 22.84167 C 31.8333 % 5.22 C
114 24-04-2020 17:00:00 22.55 C 29.8333 % 4.04 C
115 24-04-2020 18:00:00 21.59167 C 35.2500 % 5.59 C
116 24-04-2020 19:00:00 20.31667 C 41.1667 % 6.7 C
117 24-04-2020 20:00:00 18.15833 C 47.9167 % 6.96 C
118 24-04-2020 21:00:00 15.80833 C 53.4167 % 6.37 C
119 24-04-2020 22:00:00 14.64167 C 55.7500 % 5.91 C
120 24-04-2020 23:00:00 13.10833 C 52.8333 % 3.71 C

Maximal/Minimal-Werte vom 20.04.2020 - 24.04.2020

Sensor Min Max Avg
Temp
(Aussen-T/F)
5.9 °C
23-04-2020  07:20:00
25.8 °C
23-04-2020  18:30:00
13.72 °C
Feuchte
(Aussen-T/F)
25 %
23-04-2020  18:00:00
88 %
24-04-2020  07:10:00
53.71 %
Taupunkt
(Aussen-T/F)
0.5 C
21-04-2020  00:00:00
9.68 C
23-04-2020  19:00:00
3.58 C

Die Daten stammen von einer Davis Vantage Pro 2 Wetter-Station und werden unter Linux mit der Software wview2wettercgi und aufbereitet. Alle Angaben erfolgen ohne Gewähr für ihre Vollständigkeit oder Richtigkeit.
Kontakt: Rainer Krienke krienke@uni-koblenz.de . Meine Webseiten an der Uni Koblenz oder privat.
Version: $Revision: 0.78 $